Time;durP1;ratioP1;P1;durP2;ratioP2;P2;SDS_P1;SDS_P2;PMS_P1;PMS_P2;Temp;Humidity;BMP_temperature;BMP_pressure;BME280_temperature;BME280_humidity;BME280_pressure;Samples;Min_cycle;Max_cycle;Signal;HPM_P1;HPM_P2
2021/04/06 00:01:50;;;;;;;2.60;0.77;;;20.80;30.50;;;;;;5074665;28;20031;-71
2021/04/06 00:04:19;;;;;;;1.98;0.45;;;20.80;30.50;;;;;;5070511;28;20017;-71
2021/04/06 00:06:47;;;;;;;5.00;0.75;;;20.80;30.60;;;;;;5034780;28;20028;-73
2021/04/06 00:09:14;;;;;;;1.13;0.40;;;20.80;30.60;;;;;;5035390;28;20032;-72
2021/04/06 00:11:41;;;;;;;5.25;0.77;;;20.80;30.50;;;;;;5061423;28;20078;-71
2021/04/06 00:14:07;;;;;;;2.33;0.60;;;20.80;30.60;;;;;;5070937;28;20040;-72
2021/04/06 00:16:32;;;;;;;3.10;0.70;;;20.80;30.60;;;;;;5062150;28;20024;-72
2021/04/06 00:19:01;;;;;;;0.90;0.40;;;20.80;30.70;;;;;;5054553;28;20056;-71
2021/04/06 00:21:27;;;;;;;6.05;0.82;;;20.70;30.70;;;;;;5057189;28;20041;-70
2021/04/06 00:23:52;;;;;;;1.60;0.52;;;20.70;30.60;;;;;;5069206;28;20506;-71
2021/04/06 00:26:21;;;;;;;1.05;0.50;;;20.70;30.60;;;;;;5064895;28;20048;-71
2021/04/06 00:28:50;;;;;;;1.90;0.52;;;20.70;30.70;;;;;;5074576;28;20031;-71
2021/04/06 00:31:15;;;;;;;3.13;0.70;;;20.70;30.70;;;;;;5053155;28;20036;-71
2021/04/06 00:33:45;;;;;;;2.28;0.77;;;20.70;30.70;;;;;;5080576;28;20082;-71
2021/04/06 00:36:11;;;;;;;2.05;0.60;;;20.70;30.70;;;;;;5077023;28;20073;-71
2021/04/06 00:38:41;;;;;;;4.07;0.70;;;20.70;30.80;;;;;;5046848;28;20075;-70
2021/04/06 00:41:10;;;;;;;2.03;0.55;;;20.70;30.70;;;;;;5059630;28;20064;-70
2021/04/06 00:43:38;;;;;;;3.28;0.63;;;20.70;30.50;;;;;;5061094;28;20505;-71
2021/04/06 00:46:05;;;;;;;3.63;0.32;;;20.70;30.60;;;;;;5048725;28;20125;-72
2021/04/06 00:48:31;;;;;;;1.65;0.20;;;20.70;30.60;;;;;;5060124;28;21921;-72
2021/04/06 00:51:17;;;;;;;2.33;0.75;;;20.70;30.60;;;;;;5038572;28;20056;-72
2021/04/06 00:54:00;;;;;;;2.92;0.68;;;20.80;30.60;;;;;;5025506;28;20039;-71
2021/04/06 00:56:37;;;;;;;1.92;0.57;;;20.70;30.60;;;;;;5035504;28;20033;-70
2021/04/06 00:59:13;;;;;;;4.40;0.50;;;20.70;30.60;;;;;;5052532;28;20020;-71
2021/04/06 01:01:38;;;;;;;2.13;0.45;;;20.70;30.50;;;;;;5065033;28;20047;-71
2021/04/06 01:04:08;;;;;;;0.70;0.30;;;20.70;31.20;;;;;;5058865;28;20060;-71
2021/04/06 01:06:51;;;;;;;0.95;0.40;;;20.70;30.60;;;;;;5038578;28;20041;-70
2021/04/06 01:09:17;;;;;;;1.33;0.50;;;20.70;30.60;;;;;;5075929;28;20033;-71
2021/04/06 01:11:44;;;;;;;1.60;0.70;;;20.70;30.70;;;;;;5052162;28;20040;-71
2021/04/06 01:14:16;;;;;;;0.73;0.55;;;20.70;30.80;;;;;;5071256;28;20119;-71
2021/04/06 01:16:42;;;;;;;3.13;0.40;;;20.70;30.80;;;;;;5054908;28;20063;-71
2021/04/06 01:19:08;;;;;;;0.95;0.40;;;20.70;30.70;;;;;;5054962;28;20068;-71
2021/04/06 01:21:34;;;;;;;4.43;0.50;;;20.70;30.70;;;;;;5071182;28;20012;-71
2021/04/06 01:23:59;;;;;;;1.00;0.50;;;20.70;30.70;;;;;;5068725;28;20036;-71
2021/04/06 01:26:25;;;;;;;2.40;0.40;;;20.70;30.80;;;;;;5088676;28;20103;-71
2021/04/06 01:28:51;;;;;;;0.47;0.38;;;20.70;30.70;;;;;;5064139;28;20024;-71
2021/04/06 01:31:17;;;;;;;1.30;0.50;;;20.60;30.70;;;;;;5055463;28;20036;-71
2021/04/06 01:33:42;;;;;;;1.10;0.60;;;20.60;30.80;;;;;;5069110;28;20024;-70
2021/04/06 01:36:17;;;;;;;3.13;0.50;;;20.60;31.50;;;;;;5055105;28;20045;-71
2021/04/06 01:38:43;;;;;;;1.33;0.30;;;20.60;30.80;;;;;;5054104;28;20043;-71
2021/04/06 01:41:08;;;;;;;1.08;0.30;;;20.50;30.80;;;;;;5068048;28;20283;-71
2021/04/06 01:43:35;;;;;;;0.93;0.32;;;20.60;30.90;;;;;;5054038;28;20387;-71
2021/04/06 01:46:50;;;;;;;1.00;0.40;;;20.50;30.90;;;;;;5052540;28;20119;-70
2021/04/06 01:48:51;;;;;;;1.00;0.40;;;20.50;31.00;;;;;;5059468;28;20075;-71
2021/04/06 01:51:20;;;;;;;1.75;0.45;;;20.50;31.00;;;;;;5073041;28;20553;-71
2021/04/06 01:53:45;;;;;;;0.82;0.40;;;20.50;31.00;;;;;;5075621;28;20020;-71
2021/04/06 01:56:14;;;;;;;2.58;0.93;;;20.50;31.00;;;;;;5055744;28;20427;-71
2021/04/06 01:58:46;;;;;;;1.30;0.52;;;20.50;31.00;;;;;;5059040;28;20033;-71
2021/04/06 02:02:05;;;;;;;2.08;0.63;;;20.50;31.00;;;;;;5056019;28;20111;-71
2021/04/06 02:04:31;;;;;;;3.08;0.50;;;20.50;31.10;;;;;;5063156;28;20483;-71
2021/04/06 02:06:58;;;;;;;2.63;0.80;;;20.50;31.10;;;;;;5056027;28;20032;-72
2021/04/06 02:09:27;;;;;;;1.33;0.52;;;20.50;31.70;;;;;;5067383;28;20049;-71
2021/04/06 02:15:15;;;;;;;2.78;0.52;;;20.40;31.20;;;;;;5067496;28;20024;-71
2021/04/06 02:17:53;;;;;;;3.88;0.98;;;20.40;31.20;;;;;;5064281;28;20419;-70
2021/04/06 02:23:43;;;;;;;2.53;0.95;;;20.40;31.10;;;;;;5067809;28;20024;-71
2021/04/06 02:26:08;;;;;;;2.65;0.47;;;20.40;31.00;;;;;;5034770;28;20095;-70
2021/04/06 02:28:34;;;;;;;2.10;0.82;;;20.40;31.10;;;;;;5060477;28;20072;-72
2021/04/06 02:31:01;;;;;;;3.47;0.90;;;20.40;31.00;;;;;;5078554;28;20060;-71
2021/04/06 02:33:31;;;;;;;1.90;0.57;;;20.40;31.00;;;;;;5048772;28;20043;-71
2021/04/06 02:35:58;;;;;;;2.10;0.80;;;20.40;31.20;;;;;;5077773;28;20033;-70
2021/04/06 02:38:23;;;;;;;3.90;0.65;;;20.40;31.10;;;;;;5065011;28;20040;-71
2021/04/06 02:40:49;;;;;;;4.68;0.60;;;20.40;31.20;;;;;;5037778;28;20539;-70
2021/04/06 02:43:15;;;;;;;1.80;0.47;;;20.40;31.00;;;;;;5061813;28;20064;-70
2021/04/06 02:45:40;;;;;;;1.83;0.55;;;20.40;31.00;;;;;;5049549;28;20044;-70
2021/04/06 02:48:12;;;;;;;0.40;0.40;;;20.40;31.10;;;;;;5042804;28;20036;-71
2021/04/06 02:50:39;;;;;;;2.53;0.80;;;20.40;31.80;;;;;;5054410;28;20025;-70
2021/04/06 02:53:09;;;;;;;2.60;0.50;;;20.50;31.20;;;;;;5064546;28;20033;-70
2021/04/06 02:55:35;;;;;;;1.38;0.60;;;20.40;31.10;;;;;;5067963;28;20028;-70
2021/04/06 02:58:00;;;;;;;3.60;0.55;;;20.40;31.00;;;;;;5053840;28;20055;-70
2021/04/06 03:00:30;;;;;;;2.42;0.52;;;20.40;31.00;;;;;;5066839;28;20040;-70
2021/04/06 03:03:03;;;;;;;2.03;0.50;;;20.40;31.00;;;;;;5071158;28;20492;-71
2021/04/06 03:05:38;;;;;;;2.30;0.70;;;20.40;31.10;;;;;;5057365;28;20416;-70
2021/04/06 03:08:04;;;;;;;;;;;20.40;31.20;;;;;;5048517;28;20052;-70
2021/04/06 03:10:31;;;;;;;3.80;0.75;;;20.40;31.10;;;;;;5080006;28;20435;-70
2021/04/06 03:12:57;;;;;;;1.85;0.50;;;20.40;31.10;;;;;;5078681;28;20435;-70
2021/04/06 03:15:24;;;;;;;2.70;0.80;;;20.40;31.00;;;;;;5052329;28;20427;-70
2021/04/06 03:17:52;;;;;;;5.00;0.80;;;20.40;31.10;;;;;;5049846;28;20045;-71
2021/04/06 03:20:22;;;;;;;2.47;0.63;;;20.40;31.10;;;;;;5045016;28;20041;-70
2021/04/06 03:22:51;;;;;;;2.83;0.70;;;20.40;31.20;;;;;;5062221;28;20016;-70
2021/04/06 03:25:17;;;;;;;2.83;1.00;;;20.30;31.20;;;;;;5064001;28;20017;-71
2021/04/06 03:27:47;;;;;;;2.72;0.68;;;20.30;31.00;;;;;;5078476;28;20089;-70
2021/04/06 03:30:37;;;;;;;5.47;0.68;;;20.30;31.10;;;;;;5059521;28;20084;-70
2021/04/06 03:33:09;;;;;;;1.80;0.70;;;20.30;31.10;;;;;;5040830;28;20039;-71
2021/04/06 03:35:36;;;;;;;1.95;0.60;;;20.30;31.10;;;;;;5045007;28;20041;-71
2021/04/06 03:38:03;;;;;;;3.83;0.60;;;20.30;31.30;;;;;;5028777;28;20101;-71
2021/04/06 03:40:32;;;;;;;1.73;0.55;;;20.30;31.20;;;;;;5045990;28;20059;-72
2021/04/06 03:43:13;;;;;;;2.25;0.30;;;20.30;31.20;;;;;;5027528;28;20048;-72
2021/04/06 03:46:02;;;;;;;5.05;0.70;;;20.30;31.10;;;;;;5026685;28;20032;-71
2021/04/06 03:48:29;;;;;;;3.50;0.60;;;20.30;31.00;;;;;;5025507;28;20029;-71
2021/04/06 03:50:55;;;;;;;2.38;0.50;;;20.20;31.10;;;;;;5031551;28;20023;-71
2021/04/06 03:53:21;;;;;;;1.73;0.40;;;20.20;31.00;;;;;;5016688;28;20025;-71
2021/04/06 03:56:19;;;;;;;1.55;0.52;;;20.20;31.10;;;;;;5026478;28;20025;-71
2021/04/06 03:58:55;;;;;;;2.08;0.60;;;20.20;31.20;;;;;;4954298;28;20050;-71
2021/04/06 04:01:21;;;;;;;0.47;0.10;;;20.20;31.30;;;;;;4955720;28;20037;-70
2021/04/06 04:03:46;;;;;;;0.00;0.00;;;20.20;31.30;;;;;;4971027;28;20106;-70
2021/04/06 04:06:40;;;;;;;2.08;0.73;;;20.20;31.20;;;;;;4953936;28;20081;-70
2021/04/06 04:09:05;;;;;;;0.03;0.03;;;20.20;31.30;;;;;;4940660;28;20042;-71
2021/04/06 04:11:31;;;;;;;2.25;0.70;;;20.20;31.20;;;;;;4954131;28;20094;-70
2021/04/06 04:13:56;;;;;;;3.10;0.57;;;20.20;31.10;;;;;;4970791;28;20034;-70
2021/04/06 04:16:22;;;;;;;0.00;0.00;;;20.20;31.20;;;;;;4969840;28;20033;-70
2021/04/06 04:18:47;;;;;;;1.27;0.50;;;20.20;31.10;;;;;;4974066;28;20129;-70
2021/04/06 04:21:13;;;;;;;0.05;0.05;;;20.20;31.10;;;;;;4989499;28;20039;-70
2021/04/06 04:23:41;;;;;;;0.00;0.00;;;20.20;31.10;;;;;;4972568;28;20105;-70
2021/04/06 04:26:07;;;;;;;1.52;0.70;;;20.20;31.50;;;;;;4958987;28;20599;-70
2021/04/06 04:28:38;;;;;;;0.00;0.00;;;20.20;31.00;;;;;;4954204;28;20043;-70
2021/04/06 04:31:10;;;;;;;0.93;0.05;;;20.20;31.00;;;;;;4985698;28;20031;-70
2021/04/06 04:33:36;;;;;;;1.85;0.88;;;20.20;30.90;;;;;;4982179;28;20052;-70
2021/04/06 04:36:02;;;;;;;0.03;0.03;;;20.20;30.90;;;;;;5058505;28;20123;-70
2021/04/06 04:38:27;;;;;;;0.00;0.00;;;20.20;30.90;;;;;;5051578;28;20072;-70
2021/04/06 04:40:53;;;;;;;1.30;0.85;;;20.20;30.80;;;;;;5052745;28;20032;-70
2021/04/06 04:43:19;;;;;;;0.95;0.30;;;20.20;30.90;;;;;;5036920;28;20029;-70
2021/04/06 04:45:44;;;;;;;9.38;1.20;;;20.20;30.80;;;;;;5065059;28;20024;-70
2021/04/06 04:48:10;;;;;;;2.03;0.70;;;20.20;30.80;;;;;;5070361;28;20033;-70
2021/04/06 04:50:35;;;;;;;0.32;0.10;;;20.20;30.90;;;;;;5074241;28;20039;-70
2021/04/06 04:53:01;;;;;;;1.42;0.60;;;20.20;30.70;;;;;;5054914;28;20028;-70
2021/04/06 04:55:26;;;;;;;0.80;0.10;;;20.10;30.50;;;;;;5072170;28;20059;-70
2021/04/06 04:58:11;;;;;;;0.28;0.13;;;20.10;30.70;;;;;;5056114;28;20464;-70
2021/04/06 05:00:36;;;;;;;0.80;0.40;;;20.10;30.70;;;;;;5038061;28;20070;-70
2021/04/06 05:03:02;;;;;;;0.10;0.10;;;20.10;30.80;;;;;;5055338;28;20055;-70
2021/04/06 05:05:28;;;;;;;1.80;0.60;;;20.10;30.70;;;;;;5073509;28;20045;-71
2021/04/06 05:07:53;;;;;;;0.13;0.08;;;20.10;30.80;;;;;;5039261;28;20040;-71
2021/04/06 05:10:28;;;;;;;0.05;0.00;;;20.10;31.00;;;;;;5055666;28;20403;-71
2021/04/06 05:12:53;;;;;;;1.50;0.57;;;20.10;31.20;;;;;;5070513;28;20403;-71
2021/04/06 05:15:19;;;;;;;0.00;0.00;;;20.10;31.50;;;;;;5055958;28;20025;-71
2021/04/06 05:17:45;;;;;;;3.83;1.10;;;20.10;31.50;;;;;;5071300;28;20438;-71
2021/04/06 05:20:11;;;;;;;0.45;0.40;;;20.20;31.60;;;;;;5071358;28;20052;-70
2021/04/06 05:22:36;;;;;;;0.00;0.00;;;20.20;31.50;;;;;;5072978;28;20566;-71
2021/04/06 05:25:03;;;;;;;1.63;0.90;;;20.30;31.50;;;;;;5038464;28;20104;-71
2021/04/06 05:27:29;;;;;;;0.00;0.00;;;20.30;31.50;;;;;;5072169;28;20039;-71
2021/04/06 05:29:54;;;;;;;2.33;0.47;;;20.40;31.40;;;;;;5040307;28;20036;-71
2021/04/06 05:32:20;;;;;;;1.33;0.60;;;20.50;31.30;;;;;;5053847;28;20037;-71
2021/04/06 05:34:46;;;;;;;0.00;0.00;;;20.60;31.40;;;;;;5069470;28;20040;-73
2021/04/06 05:37:11;;;;;;;3.63;1.20;;;20.70;31.20;;;;;;5055623;28;20028;-74
2021/04/06 05:39:37;;;;;;;1.73;0.52;;;20.70;31.20;;;;;;5054650;28;20064;-74
2021/04/06 05:42:02;;;;;;;0.00;0.00;;;20.80;31.10;;;;;;5053511;28;20017;-74
2021/04/06 05:44:28;;;;;;;3.60;1.10;;;20.80;31.00;;;;;;5071705;28;20484;-74
2021/04/06 05:46:55;;;;;;;0.63;0.20;;;20.90;31.00;;;;;;5066888;28;20159;-73
2021/04/06 05:49:27;;;;;;;0.00;0.00;;;20.90;30.80;;;;;;5070692;28;20036;-74
2021/04/06 05:51:54;;;;;;;2.60;1.02;;;21.00;30.80;;;;;;5035815;28;20021;-74
2021/04/06 05:54:19;;;;;;;0.80;0.43;;;21.10;30.80;;;;;;5072101;28;20046;-74
2021/04/06 05:56:45;;;;;;;0.00;0.00;;;21.10;30.60;;;;;;5052874;28;20041;-74
2021/04/06 05:59:11;;;;;;;1.58;0.50;;;21.20;30.80;;;;;;5083702;28;20029;-76
2021/04/06 06:01:41;;;;;;;0.35;0.15;;;21.20;31.30;;;;;;5080186;28;20029;-74
2021/04/06 06:04:08;;;;;;;0.20;0.10;;;21.30;30.50;;;;;;5071271;28;20035;-75
2021/04/06 06:06:33;;;;;;;1.80;0.60;;;21.30;30.50;;;;;;5039664;28;20780;-75
2021/04/06 06:09:00;;;;;;;0.38;0.30;;;21.30;30.40;;;;;;5055545;28;20076;-74
2021/04/06 06:11:26;;;;;;;0.00;0.00;;;21.40;30.40;;;;;;5056620;28;20062;-75
2021/04/06 06:13:52;;;;;;;2.03;0.65;;;21.40;30.30;;;;;;5073088;28;20033;-74
2021/04/06 06:16:22;;;;;;;0.08;0.08;;;21.40;30.30;;;;;;5040131;28;20040;-74
2021/04/06 06:18:54;;;;;;;14.93;0.95;;;21.40;30.30;;;;;;5056612;28;20078;-74
2021/04/06 06:21:20;;;;;;;2.13;0.55;;;21.50;30.40;;;;;;5059092;28;20028;-75
2021/04/06 06:23:46;;;;;;;1.95;0.50;;;21.50;30.50;;;;;;5034139;28;20021;-74
2021/04/06 06:26:13;;;;;;;0.20;0.20;;;21.50;30.40;;;;;;5055338;28;20021;-74
2021/04/06 06:29:05;;;;;;;0.13;0.05;;;21.50;30.50;;;;;;5039205;28;20492;-75
2021/04/06 06:31:48;;;;;;;0.98;0.40;;;21.50;30.30;;;;;;5052883;28;20025;-74
2021/04/06 06:34:36;;;;;;;0.45;0.10;;;21.50;30.20;;;;;;5071356;28;20025;-74
2021/04/06 06:37:18;;;;;;;0.00;0.00;;;21.50;30.10;;;;;;5053731;28;20476;-74
2021/04/06 06:40:02;;;;;;;1.20;0.88;;;21.50;30.10;;;;;;5089066;28;20054;-76
2021/04/06 06:42:29;;;;;;;0.20;0.10;;;21.60;30.10;;;;;;5056559;28;20032;-75
2021/04/06 06:44:55;;;;;;;0.25;0.10;;;21.60;30.00;;;;;;5074632;28;20048;-75
2021/04/06 06:47:22;;;;;;;0.28;0.10;;;21.60;30.00;;;;;;5065796;28;20460;-75
2021/04/06 06:49:51;;;;;;;0.95;0.40;;;21.70;30.00;;;;;;5071868;28;20031;-74
2021/04/06 06:52:22;;;;;;;0.00;0.00;;;21.70;30.00;;;;;;5041369;28;20126;-75
2021/04/06 06:54:55;;;;;;;0.10;0.10;;;21.70;30.00;;;;;;5070011;28;20025;-74
2021/04/06 06:57:32;;;;;;;1.48;0.35;;;21.70;30.00;;;;;;5028313;28;20040;-75
2021/04/06 07:00:13;;;;;;;0.50;0.30;;;21.70;29.90;;;;;;5062972;28;20088;-76
2021/04/06 07:02:39;;;;;;;0.65;0.15;;;21.70;29.90;;;;;;5020376;28;20523;-74
2021/04/06 07:05:12;;;;;;;0.20;0.20;;;21.80;30.00;;;;;;5043517;28;20037;-75
2021/04/06 07:07:57;;;;;;;0.08;0.08;;;21.80;30.00;;;;;;5047128;28;20078;-76
2021/04/06 07:10:28;;;;;;;0.15;0.15;;;21.70;30.00;;;;;;5068866;28;20028;-75
2021/04/06 07:13:18;;;;;;;1.23;0.75;;;21.70;30.80;;;;;;5021257;28;20021;-75
2021/04/06 07:15:46;;;;;;;0.98;0.65;;;21.70;30.10;;;;;;5044418;28;20044;-76
2021/04/06 07:18:14;;;;;;;1.42;1.30;;;21.70;30.20;;;;;;5038919;28;20021;-76
2021/04/06 07:20:45;;;;;;;0.47;0.43;;;21.70;30.20;;;;;;5021708;28;20028;-75
2021/04/06 07:23:31;;;;;;;2.03;1.55;;;21.70;30.20;;;;;;5036022;28;20013;-75
2021/04/06 07:25:58;;;;;;;1.98;1.83;;;21.70;30.40;;;;;;5077239;28;20028;-77
2021/04/06 07:28:29;;;;;;;3.45;1.73;;;21.70;30.50;;;;;;5037312;28;20025;-73
2021/04/06 07:31:09;;;;;;;1.95;1.85;;;21.70;30.40;;;;;;5018825;28;20048;-76
2021/04/06 07:33:35;;;;;;;2.63;1.70;;;21.70;30.40;;;;;;5038285;28;20120;-77
2021/04/06 07:36:13;;;;;;;5.45;1.98;;;21.70;30.50;;;;;;5045949;28;20127;-76
2021/04/06 07:38:44;;;;;;;2.03;1.02;;;21.70;30.60;;;;;;5036941;28;20404;-79
2021/04/06 07:41:10;;;;;;;0.98;0.98;;;21.70;30.50;;;;;;5083275;28;20029;-79
2021/04/06 07:43:40;;;;;;;2.63;1.27;;;21.70;31.20;;;;;;5051641;28;20085;-77
2021/04/06 07:46:06;;;;;;;0.43;0.43;;;21.70;30.50;;;;;;5054309;28;20036;-76
2021/04/06 07:48:49;;;;;;;2.90;0.70;;;21.60;30.60;;;;;;5051331;28;20043;-77
2021/04/06 07:51:29;;;;;;;1.00;0.70;;;21.70;30.60;;;;;;5064566;28;20085;-78
2021/04/06 07:54:05;;;;;;;0.60;0.55;;;21.60;30.50;;;;;;5033265;28;20029;-76
2021/04/06 07:56:42;;;;;;;0.30;0.30;;;21.60;30.60;;;;;;5049414;28;20040;-79
2021/04/06 07:59:25;;;;;;;1.02;0.60;;;21.60;30.60;;;;;;5070730;28;20028;-78
2021/04/06 08:01:50;;;;;;;0.30;0.30;;;21.60;30.60;;;;;;5069670;28;20039;-76
2021/04/06 08:04:16;;;;;;;2.55;0.50;;;21.60;30.70;;;;;;5069833;28;20504;-78
2021/04/06 08:06:48;;;;;;;0.40;0.32;;;21.60;30.70;;;;;;5063138;28;20123;-78
2021/04/06 08:09:33;;;;;;;1.55;0.40;;;21.60;30.80;;;;;;5045785;28;20033;-79
2021/04/06 08:12:16;;;;;;;0.40;0.40;;;21.60;30.90;;;;;;5069920;28;20024;-78
2021/04/06 08:15:04;;;;;;;1.98;0.57;;;21.60;31.00;;;;;;5049722;28;20087;-79
2021/04/06 08:17:45;;;;;;;0.30;0.30;;;21.60;31.10;;;;;;5068698;28;20025;-80
2021/04/06 08:20:25;;;;;;;0.10;0.10;;;21.50;31.20;;;;;;5048451;28;20050;-80
2021/04/06 08:22:54;;;;;;;0.25;0.20;;;21.50;31.20;;;;;;5018435;28;20101;-78
2021/04/06 08:25:22;;;;;;;1.20;0.30;;;21.60;31.20;;;;;;5010764;28;20572;-76
2021/04/06 08:27:51;;;;;;;0.68;0.25;;;21.50;31.90;;;;;;5016134;28;20037;-77
2021/04/06 08:30:24;;;;;;;0.20;0.15;;;21.50;31.30;;;;;;5006599;28;20022;-77
2021/04/06 08:32:59;;;;;;;0.90;0.40;;;21.50;31.10;;;;;;5003624;28;20034;-80
2021/04/06 08:35:49;;;;;;;0.20;0.20;;;21.50;31.20;;;;;;5012048;28;20549;-80
2021/04/06 08:38:38;;;;;;;0.20;0.20;;;21.50;31.20;;;;;;5013443;28;20038;-79
2021/04/06 08:41:12;;;;;;;0.20;0.10;;;21.50;31.30;;;;;;4998540;28;20030;-79
2021/04/06 08:43:40;;;;;;;0.10;0.10;;;21.50;31.20;;;;;;5004990;28;20068;-80
2021/04/06 08:46:16;;;;;;;0.08;0.08;;;21.50;31.30;;;;;;5012619;28;20449;-80
2021/04/06 08:48:51;;;;;;;0.40;0.20;;;21.50;31.30;;;;;;4992267;28;20046;-80
2021/04/06 08:51:27;;;;;;;0.20;0.20;;;21.50;31.20;;;;;;5007612;28;20586;-81
2021/04/06 08:54:02;;;;;;;;;;;21.50;31.20;;;;;;4994308;28;20033;-81
2021/04/06 08:56:30;;;;;;;1.10;0.23;;;21.60;31.30;;;;;;4996538;28;19992;-83
2021/04/06 08:59:20;;;;;;;0.38;0.10;;;21.60;31.20;;;;;;4992439;28;20281;-80
2021/04/06 09:01:53;;;;;;;0.00;0.00;;;21.60;31.80;;;;;;5002510;28;20018;-81
2021/04/06 09:04:33;;;;;;;0.22;0.10;;;21.60;31.10;;;;;;5002096;28;20030;-81
2021/04/06 09:07:48;;;;;;;0.13;0.13;;;21.60;31.10;;;;;;4975957;28;20406;-81
2021/04/06 09:10:14;;;;;;;0.35;0.20;;;21.60;31.10;;;;;;5002882;28;20096;-80
2021/04/06 09:12:43;;;;;;;0.90;0.10;;;21.60;31.10;;;;;;4976413;28;20037;-81
2021/04/06 09:15:10;;;;;;;0.52;0.10;;;21.60;31.10;;;;;;4995159;28;20087;-78
2021/04/06 09:17:36;;;;;;;0.00;0.00;;;21.60;31.10;;;;;;5001205;28;20038;-77
2021/04/06 09:20:16;;;;;;;0.20;0.20;;;21.60;31.10;;;;;;4992799;28;20076;-77
2021/04/06 09:22:42;;;;;;;0.10;0.10;;;21.60;31.10;;;;;;4993410;28;20045;-78
2021/04/06 09:25:21;;;;;;;0.30;0.30;;;21.70;31.20;;;;;;5008887;28;20041;-78
2021/04/06 09:28:07;;;;;;;2.95;0.15;;;21.80;31.10;;;;;;5012021;28;20458;-78
2021/04/06 09:30:34;;;;;;;;;;;21.90;31.00;;;;;;5014670;28;20029;-79
2021/04/06 09:33:01;;;;;;;0.50;0.10;;;21.90;30.80;;;;;;4991951;28;20019;-78
2021/04/06 09:35:27;;;;;;;0.35;0.10;;;21.90;30.90;;;;;;4990939;28;20095;-77
2021/04/06 09:38:08;;;;;;;0.20;0.10;;;22.00;30.90;;;;;;5005153;28;20034;-77
2021/04/06 09:40:36;;;;;;;1.63;0.35;;;22.00;30.70;;;;;;4978195;28;20029;-77
2021/04/06 09:43:02;;;;;;;2.83;0.30;;;22.00;30.70;;;;;;4996783;28;20053;-77
2021/04/06 09:45:27;;;;;;;0.73;0.15;;;22.00;30.60;;;;;;5005338;28;20022;-75
2021/04/06 09:47:53;;;;;;;0.63;0.13;;;22.10;30.60;;;;;;4979640;28;20038;-77
2021/04/06 09:50:19;;;;;;;0.10;0.10;;;22.10;30.60;;;;;;4984297;28;20026;-72
2021/04/06 09:52:45;;;;;;;0.32;0.20;;;22.10;30.60;;;;;;4992039;28;20064;-72
2021/04/06 09:55:11;;;;;;;0.43;0.20;;;22.10;30.40;;;;;;4991851;28;20432;-72
2021/04/06 09:57:37;;;;;;;0.25;0.15;;;22.20;30.50;;;;;;5008326;28;20534;-72
2021/04/06 10:00:27;;;;;;;0.90;0.40;;;22.20;30.40;;;;;;4972505;28;20039;-72
2021/04/06 10:03:09;;;;;;;0.55;0.15;;;22.30;30.60;;;;;;4990519;28;20038;-72
2021/04/06 10:05:35;;;;;;;4.45;0.20;;;22.30;30.40;;;;;;5007949;28;20029;-72
2021/04/06 10:08:01;;;;;;;1.38;0.10;;;22.30;30.30;;;;;;5025359;28;20053;-72
2021/04/06 10:10:29;;;;;;;0.00;0.00;;;22.30;30.20;;;;;;4987697;28;20038;-72
2021/04/06 10:12:55;;;;;;;0.15;0.08;;;22.30;30.30;;;;;;4969998;28;20092;-72
2021/04/06 10:15:21;;;;;;;0.10;0.10;;;22.40;30.20;;;;;;4987647;28;20057;-72
2021/04/06 10:17:47;;;;;;;1.10;0.10;;;22.40;30.00;;;;;;5007533;28;20144;-72
2021/04/06 10:20:15;;;;;;;0.40;0.20;;;22.40;30.10;;;;;;5008335;28;22550;-72
2021/04/06 10:22:45;;;;;;;0.17;0.15;;;22.50;30.10;;;;;;5005737;28;20080;-72
2021/04/06 10:25:16;;;;;;;1.75;0.20;;;22.50;29.90;;;;;;5008786;28;20101;-72
2021/04/06 10:28:01;;;;;;;0.00;0.00;;;22.60;30.00;;;;;;5011323;28;20021;-72
2021/04/06 10:30:41;;;;;;;0.22;0.10;;;22.60;30.00;;;;;;4992457;28;20029;-73
2021/04/06 10:33:12;;;;;;;0.45;0.13;;;22.60;29.90;;;;;;5002668;28;20110;-73
2021/04/06 10:35:46;;;;;;;1.75;0.20;;;22.60;29.80;;;;;;5000829;28;20469;-73
2021/04/06 10:38:22;;;;;;;1.05;0.20;;;22.70;29.90;;;;;;5003631;28;20469;-73
2021/04/06 10:40:48;;;;;;;1.50;0.35;;;22.70;30.00;;;;;;5001800;28;20030;-74
2021/04/06 10:43:21;;;;;;;4.03;0.22;;;22.70;29.80;;;;;;5006922;28;20410;-72
2021/04/06 10:45:48;;;;;;;0.32;0.28;;;22.70;29.60;;;;;;4994308;28;20076;-72
2021/04/06 10:48:19;;;;;;;0.38;0.10;;;22.60;29.70;;;;;;4993482;28;20025;-72
2021/04/06 10:50:57;;;;;;;0.45;0.15;;;22.70;29.70;;;;;;5010949;28;20025;-72
2021/04/06 10:53:32;;;;;;;0.03;0.03;;;22.70;29.80;;;;;;4991525;28;20045;-71
2021/04/06 10:56:08;;;;;;;0.65;0.55;;;22.70;29.70;;;;;;4992073;28;20042;-72
2021/04/06 10:58:36;;;;;;;0.90;0.47;;;22.70;29.70;;;;;;5026064;28;20029;-72
2021/04/06 11:01:10;;;;;;;0.30;0.30;;;22.70;29.80;;;;;;5012635;28;20022;-72
2021/04/06 11:03:37;;;;;;;2.47;0.47;;;22.70;29.70;;;;;;5014789;28;20061;-72
2021/04/06 11:06:30;;;;;;;0.98;0.30;;;22.60;29.70;;;;;;5007842;28;20026;-72
2021/04/06 11:08:56;;;;;;;1.25;0.30;;;22.60;29.80;;;;;;5008098;28;20026;-72
2021/04/06 11:11:26;;;;;;;0.43;0.20;;;22.50;29.70;;;;;;4986397;28;20042;-72
2021/04/06 11:13:53;;;;;;;0.05;0.03;;;22.40;30.20;;;;;;5007693;28;20022;-72
2021/04/06 11:16:19;;;;;;;2.42;0.45;;;22.40;29.80;;;;;;4984421;28;20034;-72
2021/04/06 11:18:58;;;;;;;0.95;0.32;;;22.40;30.00;;;;;;4997030;28;20485;-72
2021/04/06 11:21:24;;;;;;;0.52;0.20;;;22.30;30.00;;;;;;4983096;28;20025;-72
2021/04/06 11:23:50;;;;;;;1.08;0.30;;;22.30;30.00;;;;;;5002269;28;20034;-71
2021/04/06 11:26:16;;;;;;;0.35;0.20;;;22.30;30.70;;;;;;5018764;28;20065;-71
2021/04/06 11:28:42;;;;;;;1.27;0.20;;;22.30;30.10;;;;;;5003795;28;20061;-71
2021/04/06 11:31:08;;;;;;;4.75;0.47;;;22.20;30.00;;;;;;5010085;28;20030;-71
2021/04/06 11:33:33;;;;;;;0.10;0.10;;;22.20;30.00;;;;;;5011647;28;20044;-72
2021/04/06 11:36:09;;;;;;;1.45;0.43;;;22.20;30.00;;;;;;5021460;28;20058;-71
2021/04/06 11:38:34;;;;;;;0.25;0.20;;;22.20;30.10;;;;;;5003428;28;20080;-72
2021/04/06 11:41:00;;;;;;;0.00;0.00;;;22.30;30.00;;;;;;5009009;28;20038;-72
2021/04/06 11:43:25;;;;;;;0.25;0.10;;;22.30;30.00;;;;;;5008395;28;20014;-72
2021/04/06 11:45:51;;;;;;;0.50;0.20;;;22.40;29.90;;;;;;5023382;28;20457;-72
2021/04/06 11:48:16;;;;;;;0.00;0.00;;;22.40;29.80;;;;;;4994939;28;20064;-71
2021/04/06 11:50:42;;;;;;;0.30;0.00;;;22.50;29.80;;;;;;5012880;28;20030;-71
2021/04/06 11:53:08;;;;;;;0.57;0.17;;;22.60;29.70;;;;;;5012659;28;20530;-72
2021/04/06 11:55:33;;;;;;;0.10;0.10;;;22.70;29.60;;;;;;5027849;28;20083;-72
2021/04/06 11:57:59;;;;;;;0.30;0.20;;;22.70;29.60;;;;;;4994783;28;20502;-72
2021/04/06 12:00:24;;;;;;;0.20;0.20;;;22.80;29.50;;;;;;4993244;28;20370;-72
2021/04/06 12:02:50;;;;;;;1.08;0.30;;;22.90;29.50;;;;;;5019723;28;20032;-72
2021/04/06 12:05:16;;;;;;;0.00;0.00;;;22.90;29.40;;;;;;5015056;28;20034;-72
2021/04/06 12:07:41;;;;;;;4.78;0.30;;;23.00;29.40;;;;;;4962881;28;20038;-80
2021/04/06 12:10:09;;;;;;;0.82;0.32;;;23.00;29.30;;;;;;4994736;28;20050;-79
2021/04/06 12:12:34;;;;;;;0.10;0.10;;;23.00;29.20;;;;;;5011510;28;20033;-80
2021/04/06 12:15:00;;;;;;;0.10;0.10;;;23.10;29.10;;;;;;5012534;28;20033;-80
2021/04/06 12:17:25;;;;;;;2.08;0.52;;;23.10;29.10;;;;;;4993533;28;20494;-80
2021/04/06 12:19:51;;;;;;;0.30;0.00;;;23.10;29.00;;;;;;5012551;28;20425;-80
2021/04/06 12:22:17;;;;;;;0.70;0.30;;;23.00;28.90;;;;;;5012360;28;20026;-80
2021/04/06 12:24:43;;;;;;;0.47;0.20;;;23.00;28.90;;;;;;4994971;28;20018;-80
2021/04/06 12:27:08;;;;;;;0.20;0.17;;;23.00;28.90;;;;;;5011154;28;20026;-80
2021/04/06 12:29:34;;;;;;;1.23;0.15;;;23.00;28.90;;;;;;5027326;28;20046;-80
2021/04/06 12:32:00;;;;;;;0.10;0.10;;;23.00;28.90;;;;;;4994007;28;20092;-80
2021/04/06 12:34:25;;;;;;;1.83;0.10;;;22.90;28.90;;;;;;4977811;28;20026;-81
2021/04/06 12:36:51;;;;;;;0.22;0.10;;;22.90;29.50;;;;;;4990584;28;20518;-80
2021/04/06 12:39:16;;;;;;;0.13;0.13;;;22.90;29.10;;;;;;4993824;28;20053;-80
2021/04/06 12:41:42;;;;;;;0.30;0.30;;;22.80;29.10;;;;;;5008713;28;20096;-80
2021/04/06 12:44:08;;;;;;;0.63;0.43;;;22.80;29.20;;;;;;4994348;28;20525;-80
2021/04/06 12:46:34;;;;;;;0.00;0.00;;;22.70;29.20;;;;;;5027604;28;20076;-80
2021/04/06 12:48:59;;;;;;;0.80;0.15;;;22.70;29.30;;;;;;5011694;28;20466;-80
2021/04/06 12:51:25;;;;;;;0.10;0.10;;;22.60;29.40;;;;;;4994863;28;20041;-80
2021/04/06 12:54:03;;;;;;;0.30;0.25;;;22.60;29.80;;;;;;5012456;28;20056;-80
2021/04/06 12:56:29;;;;;;;1.55;0.20;;;22.60;29.40;;;;;;5006324;28;20026;-80
2021/04/06 12:58:54;;;;;;;0.13;0.10;;;22.60;29.40;;;;;;5009950;28;20517;-80
2021/04/06 13:01:20;;;;;;;0.32;0.30;;;22.60;29.40;;;;;;5025299;28;20042;-80
2021/04/06 13:03:45;;;;;;;0.10;0.10;;;22.60;29.40;;;;;;5011451;28;20022;-79
2021/04/06 13:06:11;;;;;;;2.05;0.22;;;22.60;29.40;;;;;;4978608;28;20512;-80
2021/04/06 13:08:37;;;;;;;0.10;0.10;;;22.60;29.80;;;;;;5011058;28;20037;-80
2021/04/06 13:11:02;;;;;;;0.17;0.17;;;22.60;29.40;;;;;;5012969;28;20489;-80